sensor_id;sensor_type;location;lat;lon;timestamp;pressure;altitude;pressure_sealevel;temperature;humidity
60101;BME280;45978;53.646;55.930;2022-08-21T00:00:01;100774.84;;;17.82;71.52
60101;BME280;45978;53.646;55.930;2022-08-21T00:01:07;100775.66;;;17.84;71.49
60101;BME280;45978;53.646;55.930;2022-08-21T00:02:19;100775.78;;;17.81;71.49
60101;BME280;45978;53.646;55.930;2022-08-21T00:03:21;100779.34;;;17.80;71.46
60101;BME280;45978;53.646;55.930;2022-08-21T00:04:22;100776.91;;;17.75;71.60
60101;BME280;45978;53.646;55.930;2022-08-21T00:05:26;100774.47;;;17.71;71.57
60101;BME280;45978;53.646;55.930;2022-08-21T00:06:28;100768.47;;;17.66;71.73
60101;BME280;45978;53.646;55.930;2022-08-21T00:07:29;100766.94;;;17.60;72.01
60101;BME280;45978;53.646;55.930;2022-08-21T00:08:30;100771.13;;;17.66;71.89
60101;BME280;45978;53.646;55.930;2022-08-21T00:09:32;100765.22;;;17.59;72.23
60101;BME280;45978;53.646;55.930;2022-08-21T00:10:33;100770.59;;;17.57;72.12
60101;BME280;45978;53.646;55.930;2022-08-21T00:11:37;100774.06;;;17.59;72.13
60101;BME280;45978;53.646;55.930;2022-08-21T00:12:39;100768.81;;;17.58;72.43
60101;BME280;45978;53.646;55.930;2022-08-21T00:13:41;100774.91;;;17.60;72.21
60101;BME280;45978;53.646;55.930;2022-08-21T00:14:42;100766.09;;;17.59;72.20
60101;BME280;45978;53.646;55.930;2022-08-21T00:15:43;100769.66;;;17.58;72.49
60101;BME280;45978;53.646;55.930;2022-08-21T00:16:44;100764.50;;;17.55;72.52
60101;BME280;45978;53.646;55.930;2022-08-21T00:17:45;100769.81;;;17.55;72.43
60101;BME280;45978;53.646;55.930;2022-08-21T00:18:46;100773.09;;;17.60;72.30
60101;BME280;45978;53.646;55.930;2022-08-21T00:19:48;100777.63;;;17.58;72.37
60101;BME280;45978;53.646;55.930;2022-08-21T00:20:49;100763.50;;;17.58;72.47
60101;BME280;45978;53.646;55.930;2022-08-21T00:21:54;100758.22;;;17.56;72.62
60101;BME280;45978;53.646;55.930;2022-08-21T00:22:55;100770.41;;;17.62;72.30
60101;BME280;45978;53.646;55.930;2022-08-21T00:23:56;100770.59;;;17.57;72.51
60101;BME280;45978;53.646;55.930;2022-08-21T00:24:57;100777.50;;;17.61;72.37
60101;BME280;45978;53.646;55.930;2022-08-21T00:25:58;100774.84;;;17.61;72.28
60101;BME280;45978;53.646;55.930;2022-08-21T00:27:00;100780.16;;;17.61;72.23
60101;BME280;45978;53.646;55.930;2022-08-21T00:28:01;100769.59;;;17.60;72.67
60101;BME280;45978;53.646;55.930;2022-08-21T00:29:03;100766.94;;;17.60;72.32
60101;BME280;45978;53.646;55.930;2022-08-21T00:30:06;100771.25;;;17.62;72.33
60101;BME280;45978;53.646;55.930;2022-08-21T00:31:09;100775.72;;;17.62;72.52
60101;BME280;45978;53.646;55.930;2022-08-21T00:32:11;100771.50;;;17.56;72.65
60101;BME280;45978;53.646;55.930;2022-08-21T00:33:12;100775.19;;;17.54;72.65
60101;BME280;45978;53.646;55.930;2022-08-21T00:34:14;100777.84;;;17.54;72.90
60101;BME280;45978;53.646;55.930;2022-08-21T00:35:20;100776.09;;;17.53;72.92
60101;BME280;45978;53.646;55.930;2022-08-21T00:36:22;100773.59;;;17.50;72.70
60101;BME280;45978;53.646;55.930;2022-08-21T00:37:23;100770.06;;;17.49;72.94
60101;BME280;45978;53.646;55.930;2022-08-21T00:38:24;100774.44;;;17.50;72.76
60101;BME280;45978;53.646;55.930;2022-08-21T00:39:27;100774.38;;;17.52;72.67
60101;BME280;45978;53.646;55.930;2022-08-21T00:40:48;100768.38;;;17.47;73.00
60101;BME280;45978;53.646;55.930;2022-08-21T00:41:49;100768.59;;;17.42;73.04
60101;BME280;45978;53.646;55.930;2022-08-21T00:42:50;100768.59;;;17.42;73.03
60101;BME280;45978;53.646;55.930;2022-08-21T00:43:51;100774.63;;;17.46;73.02
60101;BME280;45978;53.646;55.930;2022-08-21T00:44:53;100776.34;;;17.47;73.04
60101;BME280;45978;53.646;55.930;2022-08-21T00:45:55;100770.88;;;17.51;72.91
60101;BME280;45978;53.646;55.930;2022-08-21T00:46:56;100779.69;;;17.52;72.91
60101;BME280;45978;53.646;55.930;2022-08-21T00:47:57;100773.44;;;17.53;72.80
60101;BME280;45978;53.646;55.930;2022-08-21T00:48:59;100773.53;;;17.51;73.06
60101;BME280;45978;53.646;55.930;2022-08-21T00:50:00;100777.03;;;17.52;73.08
60101;BME280;45978;53.646;55.930;2022-08-21T00:51:08;100782.13;;;17.56;72.76
60101;BME280;45978;53.646;55.930;2022-08-21T00:52:15;100783.88;;;17.57;72.92
60101;BME280;45978;53.646;55.930;2022-08-21T00:53:18;100771.56;;;17.55;72.79
60101;BME280;45978;53.646;55.930;2022-08-21T00:54:22;100774.13;;;17.58;72.86
60101;BME280;45978;53.646;55.930;2022-08-21T00:55:26;100774.84;;;17.61;72.44
60101;BME280;45978;53.646;55.930;2022-08-21T00:56:27;100774.00;;;17.61;72.54
60101;BME280;45978;53.646;55.930;2022-08-21T00:57:34;100789.84;;;17.62;72.54
60101;BME280;45978;53.646;55.930;2022-08-21T00:58:39;100789.78;;;17.64;72.66
60101;BME280;45978;53.646;55.930;2022-08-21T00:59:45;100784.53;;;17.62;72.25
60101;BME280;45978;53.646;55.930;2022-08-21T01:00:50;100782.66;;;17.65;72.25
60101;BME280;45978;53.646;55.930;2022-08-21T01:01:51;100780.03;;;17.65;72.26
60101;BME280;45978;53.646;55.930;2022-08-21T01:02:52;100795.91;;;17.66;72.39
60101;BME280;45978;53.646;55.930;2022-08-21T01:03:54;100788.88;;;17.65;72.64
60101;BME280;45978;53.646;55.930;2022-08-21T01:04:55;100790.47;;;17.69;72.66
60101;BME280;45978;53.646;55.930;2022-08-21T01:05:56;100781.75;;;17.66;72.58
60101;BME280;45978;53.646;55.930;2022-08-21T01:06:57;100779.84;;;17.69;72.34
60101;BME280;45978;53.646;55.930;2022-08-21T01:07:59;100785.94;;;17.71;72.27
60101;BME280;45978;53.646;55.930;2022-08-21T01:09:00;100781.50;;;17.72;72.31
60101;BME280;45978;53.646;55.930;2022-08-21T01:10:02;100781.44;;;17.73;72.29
60101;BME280;45978;53.646;55.930;2022-08-21T01:11:04;100793.78;;;17.74;72.29
60101;BME280;45978;53.646;55.930;2022-08-21T01:12:06;100786.81;;;17.72;72.37
60101;BME280;45978;53.646;55.930;2022-08-21T01:13:09;100785.09;;;17.71;72.16
60101;BME280;45978;53.646;55.930;2022-08-21T01:14:13;100792.06;;;17.73;72.15
60101;BME280;45978;53.646;55.930;2022-08-21T01:15:16;100784.09;;;17.73;72.25
60101;BME280;45978;53.646;55.930;2022-08-21T01:16:20;100790.13;;;17.77;72.10
60101;BME280;45978;53.646;55.930;2022-08-21T01:17:22;100791.22;;;17.73;72.15
60101;BME280;45978;53.646;55.930;2022-08-21T01:18:23;100795.56;;;17.74;72.09
60101;BME280;45978;53.646;55.930;2022-08-21T01:19:27;100799.88;;;17.76;72.21
60101;BME280;45978;53.646;55.930;2022-08-21T01:20:29;100806.13;;;17.75;71.91
60101;BME280;45978;53.646;55.930;2022-08-21T01:21:30;100799.03;;;17.76;71.98
60101;BME280;45978;53.646;55.930;2022-08-21T01:22:31;100798.16;;;17.75;72.03
60101;BME280;45978;53.646;55.930;2022-08-21T01:23:33;100793.88;;;17.73;72.32
60101;BME280;45978;53.646;55.930;2022-08-21T01:24:37;100805.28;;;17.75;72.03
60101;BME280;45978;53.646;55.930;2022-08-21T01:25:38;100797.59;;;17.69;72.15
60101;BME280;45978;53.646;55.930;2022-08-21T01:26:40;100806.94;;;17.77;71.89
60101;BME280;45978;53.646;55.930;2022-08-21T01:27:43;100806.13;;;17.75;71.92
60101;BME280;45978;53.646;55.930;2022-08-21T01:30:04;100808.66;;;17.78;72.01
60101;BME280;45978;53.646;55.930;2022-08-21T01:31:10;100816.63;;;17.78;71.96
60101;BME280;45978;53.646;55.930;2022-08-21T01:32:15;100813.00;;;17.81;72.35
60101;BME280;45978;53.646;55.930;2022-08-21T01:33:19;100814.78;;;17.80;72.20
60101;BME280;45978;53.646;55.930;2022-08-21T01:34:23;100814.69;;;17.84;72.13
60101;BME280;45978;53.646;55.930;2022-08-21T01:35:27;100816.41;;;17.85;71.76
60101;BME280;45978;53.646;55.930;2022-08-21T01:36:28;100807.50;;;17.86;71.80
60101;BME280;45978;53.646;55.930;2022-08-21T01:37:29;100810.09;;;17.87;71.59
60101;BME280;45978;53.646;55.930;2022-08-21T01:38:31;100817.88;;;17.92;71.37
60101;BME280;45978;53.646;55.930;2022-08-21T01:39:33;100815.94;;;17.95;71.53
60101;BME280;45978;53.646;55.930;2022-08-21T01:40:34;100819.44;;;17.96;71.24
60101;BME280;45978;53.646;55.930;2022-08-21T01:41:35;100817.69;;;17.96;71.07
60101;BME280;45978;53.646;55.930;2022-08-21T01:42:37;100820.34;;;17.96;71.17
60101;BME280;45978;53.646;55.930;2022-08-21T01:43:38;100819.41;;;17.97;71.30
60101;BME280;45978;53.646;55.930;2022-08-21T01:44:40;100823.47;;;18.06;71.09
60101;BME280;45978;53.646;55.930;2022-08-21T01:45:42;100818.06;;;18.28;70.65
60101;BME280;45978;53.646;55.930;2022-08-21T01:46:43;100821.25;;;18.74;69.48
60101;BME280;45978;53.646;55.930;2022-08-21T01:47:45;100819.66;;;19.27;67.86
60101;BME280;45978;53.646;55.930;2022-08-21T01:48:46;100817.41;;;19.73;66.15
60101;BME280;45978;53.646;55.930;2022-08-21T01:49:48;100810.53;;;20.20;64.70
60101;BME280;45978;53.646;55.930;2022-08-21T01:51:50;100821.53;;;20.96;61.70
60101;BME280;45978;53.646;55.930;2022-08-21T01:52:51;100821.34;;;21.31;60.51
60101;BME280;45978;53.646;55.930;2022-08-21T01:53:53;100815.69;;;21.68;59.36
60101;BME280;45978;53.646;55.930;2022-08-21T01:54:54;100820.81;;;22.01;58.36
60101;BME280;45978;53.646;55.930;2022-08-21T01:55:55;100817.44;;;22.28;57.22
60101;BME280;45978;53.646;55.930;2022-08-21T01:56:58;100815.16;;;22.50;56.29
60101;BME280;45978;53.646;55.930;2022-08-21T01:57:59;100815.53;;;22.73;55.56
60101;BME280;45978;53.646;55.930;2022-08-21T01:59:01;100805.72;;;23.01;54.65
60101;BME280;45978;53.646;55.930;2022-08-21T02:00:09;100809.28;;;23.28;53.38
60101;BME280;45978;53.646;55.930;2022-08-21T02:01:15;100807.25;;;23.59;52.89
60101;BME280;45978;53.646;55.930;2022-08-21T02:02:16;100817.63;;;23.91;52.04
60101;BME280;45978;53.646;55.930;2022-08-21T02:03:18;100818.38;;;24.06;51.49
60101;BME280;45978;53.646;55.930;2022-08-21T02:04:19;100815.41;;;24.36;50.55
60101;BME280;45978;53.646;55.930;2022-08-21T02:05:21;100816.59;;;24.58;50.01
60101;BME280;45978;53.646;55.930;2022-08-21T02:06:22;100820.63;;;24.76;49.64
60101;BME280;45978;53.646;55.930;2022-08-21T02:07:23;100818.22;;;24.97;48.68
60101;BME280;45978;53.646;55.930;2022-08-21T02:08:24;100822.22;;;25.16;48.33
60101;BME280;45978;53.646;55.930;2022-08-21T02:09:26;100823.13;;;25.40;47.67
60101;BME280;45978;53.646;55.930;2022-08-21T02:10:30;100818.56;;;25.65;46.96
60101;BME280;45978;53.646;55.930;2022-08-21T02:11:34;100818.75;;;25.86;46.48
60101;BME280;45978;53.646;55.930;2022-08-21T02:12:35;100810.00;;;26.06;45.79
60101;BME280;45978;53.646;55.930;2022-08-21T02:13:36;100811.03;;;26.17;45.14
60101;BME280;45978;53.646;55.930;2022-08-21T02:14:38;100818.38;;;26.37;45.15
60101;BME280;45978;53.646;55.930;2022-08-21T02:15:39;100822.09;;;26.59;44.58
60101;BME280;45978;53.646;55.930;2022-08-21T02:16:43;100819.00;;;26.75;43.91
60101;BME280;45978;53.646;55.930;2022-08-21T02:17:48;100820.56;;;27.00;43.43
60101;BME280;45978;53.646;55.930;2022-08-21T02:18:50;100812.69;;;27.19;43.06
60101;BME280;45978;53.646;55.930;2022-08-21T02:19:54;100821.63;;;27.31;42.68
60101;BME280;45978;53.646;55.930;2022-08-21T02:20:55;100819.97;;;27.40;42.47
60101;BME280;45978;53.646;55.930;2022-08-21T02:21:56;100817.25;;;27.51;42.19
60101;BME280;45978;53.646;55.930;2022-08-21T02:22:57;100818.44;;;27.58;41.90
60101;BME280;45978;53.646;55.930;2022-08-21T02:23:59;100812.59;;;27.74;41.60
60101;BME280;45978;53.646;55.930;2022-08-21T02:25:02;100816.50;;;28.02;41.11
60101;BME280;45978;53.646;55.930;2022-08-21T02:26:06;100808.09;;;28.27;40.50
60101;BME280;45978;53.646;55.930;2022-08-21T02:27:07;100813.31;;;28.39;40.02
60101;BME280;45978;53.646;55.930;2022-08-21T02:28:11;100815.91;;;28.51;40.08
60101;BME280;45978;53.646;55.930;2022-08-21T02:29:13;100818.00;;;28.78;39.44
60101;BME280;45978;53.646;55.930;2022-08-21T02:30:21;100816.50;;;28.95;38.94
60101;BME280;45978;53.646;55.930;2022-08-21T02:31:26;100807.03;;;29.20;38.13
60101;BME280;45978;53.646;55.930;2022-08-21T02:32:27;100814.16;;;29.40;38.02
60101;BME280;45978;53.646;55.930;2022-08-21T02:33:29;100821.56;;;29.58;37.38
60101;BME280;45978;53.646;55.930;2022-08-21T02:34:31;100824.41;;;29.66;37.42
60101;BME280;45978;53.646;55.930;2022-08-21T02:35:32;100806.78;;;29.72;37.15
60101;BME280;45978;53.646;55.930;2022-08-21T02:36:33;100820.00;;;29.85;36.94
60101;BME280;45978;53.646;55.930;2022-08-21T02:37:43;100820.88;;;29.95;36.59
60101;BME280;45978;53.646;55.930;2022-08-21T02:38:44;100818.97;;;30.15;36.47
60101;BME280;45978;53.646;55.930;2022-08-21T02:39:46;100821.19;;;30.29;36.07
60101;BME280;45978;53.646;55.930;2022-08-21T02:40:48;100815.72;;;30.49;35.76
60101;BME280;45978;53.646;55.930;2022-08-21T02:41:50;100814.22;;;30.64;35.34
60101;BME280;45978;53.646;55.930;2022-08-21T02:42:52;100814.19;;;30.74;35.25
60101;BME280;45978;53.646;55.930;2022-08-21T02:43:53;100820.88;;;30.79;35.06
60101;BME280;45978;53.646;55.930;2022-08-21T02:44:54;100821.78;;;30.98;35.05
60101;BME280;45978;53.646;55.930;2022-08-21T02:45:56;100816.00;;;31.11;34.97
60101;BME280;45978;53.646;55.930;2022-08-21T02:46:58;100816.44;;;31.24;34.64
60101;BME280;45978;53.646;55.930;2022-08-21T02:48:02;100819.44;;;31.49;34.14
60101;BME280;45978;53.646;55.930;2022-08-21T02:49:03;100822.75;;;31.25;34.25
60101;BME280;45978;53.646;55.930;2022-08-21T02:50:06;100824.22;;;30.64;35.38
60101;BME280;45978;53.646;55.930;2022-08-21T02:51:17;100828.25;;;30.03;36.25
60101;BME280;45978;53.646;55.930;2022-08-21T02:52:19;100826.00;;;29.30;37.58
60101;BME280;45978;53.646;55.930;2022-08-21T02:53:20;100817.97;;;28.68;38.77
60101;BME280;45978;53.646;55.930;2022-08-21T02:54:22;100826.66;;;28.10;39.24
60101;BME280;45978;53.646;55.930;2022-08-21T02:55:27;100820.63;;;27.64;40.48
60101;BME280;45978;53.646;55.930;2022-08-21T02:56:28;100821.56;;;27.42;41.06
60101;BME280;45978;53.646;55.930;2022-08-21T02:57:29;100824.03;;;27.34;41.19
60101;BME280;45978;53.646;55.930;2022-08-21T02:58:39;100831.56;;;27.08;41.77
60101;BME280;45978;53.646;55.930;2022-08-21T02:59:41;100822.66;;;26.74;42.58
60101;BME280;45978;53.646;55.930;2022-08-21T03:00:43;100824.41;;;26.52;42.87
60101;BME280;45978;53.646;55.930;2022-08-21T03:01:44;100826.84;;;26.78;42.79
60101;BME280;45978;53.646;55.930;2022-08-21T03:02:45;100820.00;;;27.29;41.92
60101;BME280;45978;53.646;55.930;2022-08-21T03:03:48;100820.91;;;27.50;41.38
60101;BME280;45978;53.646;55.930;2022-08-21T03:04:52;100819.38;;;27.69;41.05
60101;BME280;45978;53.646;55.930;2022-08-21T03:05:53;100824.78;;;28.32;39.92
60101;BME280;45978;53.646;55.930;2022-08-21T03:06:56;100815.50;;;28.96;38.83
60101;BME280;45978;53.646;55.930;2022-08-21T03:08:01;100818.88;;;29.48;37.87
60101;BME280;45978;53.646;55.930;2022-08-21T03:09:03;100820.50;;;30.17;36.73
60101;BME280;45978;53.646;55.930;2022-08-21T03:10:06;100814.66;;;30.69;35.87
60101;BME280;45978;53.646;55.930;2022-08-21T03:11:07;100819.34;;;31.23;34.93
60101;BME280;45978;53.646;55.930;2022-08-21T03:12:08;100812.06;;;31.59;34.37
60101;BME280;45978;53.646;55.930;2022-08-21T03:13:10;100818.59;;;31.92;33.77
60101;BME280;45978;53.646;55.930;2022-08-21T03:14:11;100812.25;;;32.02;33.69
60101;BME280;45978;53.646;55.930;2022-08-21T03:15:16;100814.75;;;32.21;33.35
60101;BME280;45978;53.646;55.930;2022-08-21T03:16:19;100808.09;;;32.50;32.92
60101;BME280;45978;53.646;55.930;2022-08-21T03:17:22;100809.97;;;32.84;32.12
60101;BME280;45978;53.646;55.930;2022-08-21T03:18:23;100805.25;;;33.02;31.51
60101;BME280;45978;53.646;55.930;2022-08-21T03:19:24;100814.84;;;33.23;30.86
60101;BME280;45978;53.646;55.930;2022-08-21T03:20:27;100816.56;;;33.48;31.43
60101;BME280;45978;53.646;55.930;2022-08-21T03:21:29;100814.53;;;33.34;31.63
60101;BME280;45978;53.646;55.930;2022-08-21T03:22:31;100820.31;;;33.39;31.29
60101;BME280;45978;53.646;55.930;2022-08-21T03:23:33;100818.63;;;33.46;30.66
60101;BME280;45978;53.646;55.930;2022-08-21T03:24:34;100811.63;;;33.52;30.78
60101;BME280;45978;53.646;55.930;2022-08-21T03:25:35;100821.56;;;33.69;30.40
60101;BME280;45978;53.646;55.930;2022-08-21T03:26:36;100819.31;;;33.57;30.95
60101;BME280;45978;53.646;55.930;2022-08-21T03:27:37;100800.38;;;33.39;30.92
60101;BME280;45978;53.646;55.930;2022-08-21T03:28:38;100811.47;;;33.53;30.57
60101;BME280;45978;53.646;55.930;2022-08-21T03:29:40;100812.69;;;33.67;30.33
60101;BME280;45978;53.646;55.930;2022-08-21T03:30:45;100813.72;;;33.83;30.43
60101;BME280;45978;53.646;55.930;2022-08-21T03:31:47;100810.81;;;33.92;30.12
60101;BME280;45978;53.646;55.930;2022-08-21T03:32:48;100822.03;;;34.14;30.09
60101;BME280;45978;53.646;55.930;2022-08-21T03:33:50;100808.88;;;34.34;29.21
60101;BME280;45978;53.646;55.930;2022-08-21T03:34:52;100817.63;;;33.97;29.68
60101;BME280;45978;53.646;55.930;2022-08-21T03:35:58;100817.63;;;33.64;29.73
60101;BME280;45978;53.646;55.930;2022-08-21T03:37:02;100820.84;;;33.59;30.56
60101;BME280;45978;53.646;55.930;2022-08-21T03:38:03;100815.59;;;33.90;29.89
60101;BME280;45978;53.646;55.930;2022-08-21T03:39:04;100811.81;;;34.16;29.51
60101;BME280;45978;53.646;55.930;2022-08-21T03:40:07;100804.41;;;34.41;29.14
60101;BME280;45978;53.646;55.930;2022-08-21T03:41:08;100797.00;;;34.66;28.84
60101;BME280;45978;53.646;55.930;2022-08-21T03:42:10;100806.88;;;34.67;28.71
60101;BME280;45978;53.646;55.930;2022-08-21T03:43:12;100809.06;;;34.24;29.11
60101;BME280;45978;53.646;55.930;2022-08-21T03:44:13;100820.34;;;33.88;29.81
60101;BME280;45978;53.646;55.930;2022-08-21T03:45:16;100815.94;;;33.71;29.95
60101;BME280;45978;53.646;55.930;2022-08-21T03:46:17;100820.69;;;33.85;30.25
60101;BME280;45978;53.646;55.930;2022-08-21T03:47:23;100820.00;;;34.08;29.43
60101;BME280;45978;53.646;55.930;2022-08-21T03:48:24;100821.47;;;34.35;29.54
60101;BME280;45978;53.646;55.930;2022-08-21T03:49:26;100821.94;;;34.55;29.29
60101;BME280;45978;53.646;55.930;2022-08-21T03:50:30;100819.44;;;34.85;28.78
60101;BME280;45978;53.646;55.930;2022-08-21T03:51:31;100820.84;;;34.72;28.77
60101;BME280;45978;53.646;55.930;2022-08-21T03:52:34;100824.91;;;34.85;28.59
60101;BME280;45978;53.646;55.930;2022-08-21T03:53:36;100822.44;;;34.98;28.43
60101;BME280;45978;53.646;55.930;2022-08-21T03:54:37;100819.09;;;34.80;28.86
60101;BME280;45978;53.646;55.930;2022-08-21T03:55:40;100820.84;;;35.04;28.53
60101;BME280;45978;53.646;55.930;2022-08-21T03:56:41;100822.84;;;34.87;28.78
60101;BME280;45978;53.646;55.930;2022-08-21T03:57:43;100824.56;;;34.80;28.67
60101;BME280;45978;53.646;55.930;2022-08-21T03:58:44;100822.19;;;35.08;28.58
60101;BME280;45978;53.646;55.930;2022-08-21T03:59:46;100819.41;;;35.47;28.19
60101;BME280;45978;53.646;55.930;2022-08-21T04:00:51;100828.56;;;35.78;27.75
60101;BME280;45978;53.646;55.930;2022-08-21T04:01:58;100833.25;;;36.07;27.27
60101;BME280;45978;53.646;55.930;2022-08-21T04:03:00;100831.25;;;36.01;27.40
60101;BME280;45978;53.646;55.930;2022-08-21T04:04:03;100829.97;;;35.88;27.53
60101;BME280;45978;53.646;55.930;2022-08-21T04:05:05;100829.72;;;35.83;28.00
60101;BME280;45978;53.646;55.930;2022-08-21T04:06:07;100833.91;;;35.48;27.96
60101;BME280;45978;53.646;55.930;2022-08-21T04:07:08;100830.81;;;35.28;28.09
60101;BME280;45978;53.646;55.930;2022-08-21T04:08:09;100828.19;;;35.03;28.31
60101;BME280;45978;53.646;55.930;2022-08-21T04:09:11;100840.78;;;35.44;28.04
60101;BME280;45978;53.646;55.930;2022-08-21T04:10:12;100833.72;;;35.26;28.30
60101;BME280;45978;53.646;55.930;2022-08-21T04:11:13;100820.28;;;34.85;28.36
60101;BME280;45978;53.646;55.930;2022-08-21T04:12:15;100829.00;;;34.25;29.45
60101;BME280;45978;53.646;55.930;2022-08-21T04:13:19;100840.22;;;34.38;29.05
60101;BME280;45978;53.646;55.930;2022-08-21T04:14:20;100837.72;;;34.20;29.36
60101;BME280;45978;53.646;55.930;2022-08-21T04:15:24;100846.56;;;34.06;29.73
60101;BME280;45978;53.646;55.930;2022-08-21T04:16:25;100840.09;;;33.99;29.58
60101;BME280;45978;53.646;55.930;2022-08-21T04:17:26;100845.22;;;33.69;30.11
60101;BME280;45978;53.646;55.930;2022-08-21T04:18:27;100850.66;;;33.85;29.46
60101;BME280;45978;53.646;55.930;2022-08-21T04:19:29;100847.44;;;34.15;29.04
60101;BME280;45978;53.646;55.930;2022-08-21T04:20:30;100841.78;;;34.24;29.46
60101;BME280;45978;53.646;55.930;2022-08-21T04:21:31;100846.34;;;34.40;28.71
60101;BME280;45978;53.646;55.930;2022-08-21T04:22:32;100851.81;;;34.40;29.21
60101;BME280;45978;53.646;55.930;2022-08-21T04:23:33;100839.25;;;34.79;28.77
60101;BME280;45978;53.646;55.930;2022-08-21T04:24:35;100836.69;;;34.77;28.45
60101;BME280;45978;53.646;55.930;2022-08-21T04:25:36;100832.56;;;35.21;27.96
60101;BME280;45978;53.646;55.930;2022-08-21T04:26:37;100847.16;;;35.36;27.66
60101;BME280;45978;53.646;55.930;2022-08-21T04:27:39;100849.47;;;34.85;28.35
60101;BME280;45978;53.646;55.930;2022-08-21T04:28:42;100840.34;;;35.32;27.49
60101;BME280;45978;53.646;55.930;2022-08-21T04:29:44;100843.69;;;35.65;27.45
60101;BME280;45978;53.646;55.930;2022-08-21T04:30:45;100839.78;;;35.60;27.51
60101;BME280;45978;53.646;55.930;2022-08-21T04:31:46;100830.16;;;35.72;26.79
60101;BME280;45978;53.646;55.930;2022-08-21T04:32:49;100843.47;;;35.90;26.91
60101;BME280;45978;53.646;55.930;2022-08-21T04:33:51;100843.31;;;35.92;27.24
60101;BME280;45978;53.646;55.930;2022-08-21T04:35:03;100839.16;;;35.96;26.89
60101;BME280;45978;53.646;55.930;2022-08-21T04:36:05;100843.00;;;36.24;26.66
60101;BME280;45978;53.646;55.930;2022-08-21T04:37:07;100844.97;;;35.78;27.27
60101;BME280;45978;53.646;55.930;2022-08-21T04:38:08;100847.53;;;35.79;27.16
60101;BME280;45978;53.646;55.930;2022-08-21T04:39:09;100849.50;;;35.08;27.97
60101;BME280;45978;53.646;55.930;2022-08-21T04:40:12;100839.94;;;34.81;28.41
60101;BME280;45978;53.646;55.930;2022-08-21T04:41:14;100846.34;;;34.88;28.45
60101;BME280;45978;53.646;55.930;2022-08-21T04:42:15;100842.09;;;35.25;27.89
60101;BME280;45978;53.646;55.930;2022-08-21T04:43:16;100841.78;;;35.89;27.03
60101;BME280;45978;53.646;55.930;2022-08-21T04:44:18;100840.97;;;36.03;27.18
60101;BME280;45978;53.646;55.930;2022-08-21T04:45:28;100828.19;;;36.34;26.65
60101;BME280;45978;53.646;55.930;2022-08-21T04:46:29;100836.41;;;36.48;26.32
60101;BME280;45978;53.646;55.930;2022-08-21T04:47:31;100839.31;;;36.77;26.29
60101;BME280;45978;53.646;55.930;2022-08-21T04:48:32;100835.28;;;36.73;26.03
60101;BME280;45978;53.646;55.930;2022-08-21T04:49:36;100831.66;;;36.57;26.22
60101;BME280;45978;53.646;55.930;2022-08-21T04:51:41;100822.69;;;36.63;26.54
60101;BME280;45978;53.646;55.930;2022-08-21T04:52:43;100827.25;;;36.41;26.28
60101;BME280;45978;53.646;55.930;2022-08-21T04:53:49;100832.34;;;36.30;26.52
60101;BME280;45978;53.646;55.930;2022-08-21T04:54:51;100833.25;;;36.07;26.44
60101;BME280;45978;53.646;55.930;2022-08-21T04:55:54;100828.28;;;36.25;26.30
60101;BME280;45978;53.646;55.930;2022-08-21T04:57:00;100826.69;;;36.31;26.37
60101;BME280;45978;53.646;55.930;2022-08-21T04:58:09;100824.13;;;36.30;26.63
60101;BME280;45978;53.646;55.930;2022-08-21T04:59:43;100829.31;;;36.84;25.76
60101;BME280;45978;53.646;55.930;2022-08-21T05:00:46;100820.81;;;36.79;26.13
60101;BME280;45978;53.646;55.930;2022-08-21T05:01:49;100821.75;;;36.86;25.59
60101;BME280;45978;53.646;55.930;2022-08-21T05:02:53;100821.38;;;36.59;26.08
60101;BME280;45978;53.646;55.930;2022-08-21T05:03:59;100829.28;;;36.09;26.61
60101;BME280;45978;53.646;55.930;2022-08-21T05:05:02;100824.91;;;36.38;26.76
60101;BME280;45978;53.646;55.930;2022-08-21T05:06:06;100832.59;;;36.20;26.80
60101;BME280;45978;53.646;55.930;2022-08-21T05:07:12;100828.69;;;35.61;26.95
60101;BME280;45978;53.646;55.930;2022-08-21T05:08:19;100820.91;;;35.27;27.38
60101;BME280;45978;53.646;55.930;2022-08-21T05:09:23;100829.81;;;34.89;28.32
60101;BME280;45978;53.646;55.930;2022-08-21T05:10:25;100834.78;;;35.17;27.95
60101;BME280;45978;53.646;55.930;2022-08-21T05:11:26;100821.09;;;35.48;27.34
60101;BME280;45978;53.646;55.930;2022-08-21T05:12:27;100822.97;;;35.25;27.79
60101;BME280;45978;53.646;55.930;2022-08-21T05:13:29;100821.72;;;35.36;27.67
60101;BME280;45978;53.646;55.930;2022-08-21T05:14:31;100823.81;;;35.48;27.23
60101;BME280;45978;53.646;55.930;2022-08-21T05:15:32;100819.91;;;35.66;27.39
60101;BME280;45978;53.646;55.930;2022-08-21T05:16:33;100823.19;;;35.84;27.47
60101;BME280;45978;53.646;55.930;2022-08-21T05:17:34;100828.94;;;36.27;26.83
60101;BME280;45978;53.646;55.930;2022-08-21T05:18:35;100822.81;;;36.40;26.86
60101;BME280;45978;53.646;55.930;2022-08-21T05:19:36;100817.91;;;36.36;26.44
60101;BME280;45978;53.646;55.930;2022-08-21T05:20:38;100819.22;;;36.55;26.29
60101;BME280;45978;53.646;55.930;2022-08-21T05:21:41;100814.88;;;36.75;26.18
60101;BME280;45978;53.646;55.930;2022-08-21T05:22:42;100817.69;;;36.82;26.19
60101;BME280;45978;53.646;55.930;2022-08-21T05:23:43;100821.88;;;36.33;26.71
60101;BME280;45978;53.646;55.930;2022-08-21T05:24:45;100826.03;;;36.29;27.23
60101;BME280;45978;53.646;55.930;2022-08-21T05:25:46;100818.19;;;36.41;26.80